XXXI BIEG ULICZNY DĄBROWA CHEŁMIŃSKA - OSTROMECKO

Organizator/ Organizer:
Ludowy Klub Sportowy Ostromecko
Data/ Date:
2018-10-07
Miejsce/ Place:
Dąbrowa - Ostromecko
Dystans/ Distance:
7.5 km
Zgłoszonych/ Registered:
259
Wystartowało/ Started:
193
Nie ukończyło/ Not finished:
0
Ukończyło/ Finished:
193
Na trasie/ On track:
0

Klasyfikacja/ Classiffication: Mieszkaniec Gminy Dąbrowa Chełmińska

Wyniki nieoficjalne !!!
Pełne wyniki/ Full Results : PDF | CSV
Wyniki uproszczone/ Simple results : PDF | PDF2 | CSV
 
Klasyfikacje w punktach pomiarowych/ Classification for time points: Meta
Klasyfikacje wg kategorii/ Classification by category: Wszyscy | K Open | M Open | Mieszkanka Gminy Dąbrowa Chełmińska | Mieszkaniec Gminy Dąbrowa Chełmińska | K16 | M16 | K19 | M19 | K20 | M20 | K30 | M30 | K40 | M40 | K50 | M50 | K60 | M60 | K70 | M70

Msc/ RnkZawodnik/ NameNumer/ BibKlub/ TeamMiejscowość/ CityKraj/ CountryKategoria/ CategoryMkat/ CatRnkK/M/ W/MMieszkaniec Gminy Dąbrowa ChełmińskaCzas
netto
7.5km
Czas
brutto
7.5km
Różn/ GapTempo
min/km
Tempo
km/h
       
1KOTŁOWSKI Bartosz 202LKS OSTROMECKOOSTROMECKOM202M 2Tak00:24:22.3000:24:22.30 3:1418.5
2RETECKI Krzysztof 9BOGMAR / PRESTOOSTROMECKOM403M 11Tak00:28:11.5500:28:11.55+00:03:493:4516
3WILIŃSKI Sebastian 105CZARŻEM305M 12Tak00:28:41.8500:28:41.85+00:04:193:4915.7
4GOŁATA Wojciech 3WILCZA WATAHADĄBROWA CHEŁMIŃSKAM308M 20Tak00:30:49.4000:30:49.40+00:06:274:0614.6
5ŚLIWIŃSKI Łukasz 231M309M 21Tak00:30:52.4000:30:52.40+00:06:304:0614.6
6BINKOWSKI Adrian 199PROFESSIONAL HR/CB163GZINM3010M 22Tak00:30:57.8000:30:57.80+00:06:354:0714.5
7ŁADNIAK Dariusz 214CZARNOWOM406M 23Tak00:31:00.9000:31:00.90+00:06:384:0814.5
8ZAKRZEWSKI Mateusz 233STRZYŻAWAM162M 24Tak00:31:01.6500:31:01.65+00:06:394:0814.5
9KRUSZEWSKI Tadeusz 234DĄBROWA CHEŁMIŃSKAM407M 25Tak00:31:10.5500:31:10.55+00:06:484:0914.4
10KARNOWSKI Sebastian 101CZEMLEWOM3012M 29Tak00:31:38.9000:31:38.90+00:07:164:1314.2
11SYROCKI Michał 71WAŁDOWO KRÓLEWSKIEM3014M 31Tak00:31:42.3500:31:42.35+00:07:204:1314.2
12STARSZAK Paweł 83DĄBROWA CHEŁMIŃSKAM409M 32Tak00:31:55.3000:31:55.30+00:07:334:1514.1
13STARSZAK Seweryn 85DĄBROWA CHEŁMIŃSKAM163M 34Tak00:32:26.6000:32:26.60+00:08:044:1913.9
14KOCINIEWSKI Dariusz 114LKS JANOWODĄBROWA CHEŁMIŃSKAM4010M 35Tak00:32:40.3000:32:40.30+00:08:184:2113.8
15BAGROWSKI Marek 8UMK COLLEGIUM MEDICUM RATOWNICTWO MEDYCZNE RATUJE I BIEGAJANOWOM503M 38Tak00:33:16.1500:33:16.15+00:08:534:2613.5
16KOCINIEWSKI Wojciech 116LKS JANOWOJANOWO 67M164M 39Tak00:33:26.1000:33:26.10+00:09:034:2713.5
17GRYGIEL Damian 59MOZGOWINAM207M 43Tak00:33:49.1000:33:49.10+00:09:264:3013.3
18SOBOCIŃSKI Kamil 153DĄBROWA CHEŁMIŃSKAM3020M 47Tak00:34:08.6000:34:08.60+00:09:464:3313.2
19ŚMIGLEWSKI Aleksander 88OSTROMECKOM209M 49Tak00:34:10.7500:34:10.75+00:09:484:3313.2
20KUŚMIEREK Michał 17GZINM3021M 52Tak00:34:20.1000:34:20.10+00:09:574:3413.1
21KOHUTEK Artur 132DĄBROWA CHEŁMIŃSKAM4016M 55Tak00:34:38.8500:34:38.85+00:10:164:3713
22HALINIAK Filip 149DĄBROWA CHEŁMIŃSKAM192M 56Tak00:34:46.4000:34:46.40+00:10:244:3812.9
23KOCINIEWSKI Łukasz 121LKS JANOWOJANOWOM165M 58Tak00:34:53.2500:34:53.25+00:10:304:3912.9
24WESTFALEWSKI Tomasz 164LKS BOGMAR OSTROMECKOOSTROMECKOM2010M 65Tak00:35:33.7500:35:33.75+00:11:114:4412.7
25KOCINIEWSKI Franciszek 115LKS JANOWOJANOWO 67M194M 66Tak00:35:33.9000:35:33.90+00:11:114:4412.7
26RUTKOWSKI Tomasz 36BRAKSTRZYŻAWAM4018M 70Tak00:35:59.1500:35:59.15+00:11:364:4712.5
27KOCINIEWSKI Bartlomiej 89LKS JANOWOJANOWOM3031M 76Tak00:36:49.5000:36:49.50+00:12:274:5412.2
28KALEC Marcin 253OSTROMECKOM2012M 78Tak00:37:21.0500:37:21.05+00:12:584:5812
29ŚLIWIŃSKI Piotr 262GZINM2013M 79Tak00:37:21.5000:37:21.50+00:12:594:5812
30KOWALCZYK Robert 237OSTROMECKOM4022M 82Tak00:37:34.1500:37:34.15+00:13:115:0012
31MANDRA Wojciech 68CZARŻEM3032M 83Tak00:37:42.0000:37:42.00+00:13:195:0111.9
32SOSIŃSKI Paweł 29GZINM3034M 85Tak00:37:51.5000:37:51.50+00:13:295:0211.9
33KUZIOŁA Łukasz 225OSTROMECKOM4023M 86Tak00:37:57.3000:37:57.30+00:13:355:0311.9
34RUTKOWSKI Kamil 44BRAKSTRZYŻAWAM195M 91Tak00:38:27.5500:38:27.55+00:14:055:0711.7
35HALINIAK Jakub 148DĄBROWA CHEŁMIŃSKAM166M 92Tak00:38:28.5000:38:28.50+00:14:065:0711.7
36BANACH Grzegorz 82WAŁDOWO KRÓLEWSKIEM505M 93Tak00:38:53.0000:38:53.00+00:14:305:1111.6
37ŚLIWIŃSKI Mariusz 159KS CZEMLEWOCZEMLEWOM3036M 94Tak00:39:00.1500:39:00.15+00:14:375:1211.5
38HALINIAK Dominik 150DĄBROWA CHEŁMIŃSKAM2014M 97Tak00:39:48.4500:39:48.45+00:15:265:1811.3
39KUK Bartłomiej Adam 126OSTROMECKOM167M 100Tak00:40:04.8000:40:04.80+00:15:425:2011.2
40KOCINIEWSKI Marcin 120LKS JANOWOCZARŻEM3039M 102Tak00:40:17.6500:40:17.65+00:15:555:2211.2
41RUTKOWSKI Szymon 37BRAKSTRZYŻAWAM168M 107Tak00:41:06.8500:41:06.85+00:16:445:2810.9
42SZYDŁO Mariusz 168DĄBROWA CHEŁMIŃSKAM169M 109Tak00:41:31.9500:41:31.95+00:17:095:3210.8
43SZYDŁO Adam 169DĄBROWA CHEŁMIŃSKAM1610M 110Tak00:41:32.0000:41:32.00+00:17:095:3210.8
44SZYDŁO Sławomir 167DĄBROWA CHEŁMIŃSKAM4026M 111Tak00:41:32.5000:41:32.50+00:17:105:3210.8
45ZOLTEK Patryk 122DABROWA CHELMINSKAM2015M 116Tak00:42:50.2000:42:50.20+00:18:275:4210.5
46WILK Krzysztof 265BOLUMINEKM606M 119Tak00:44:15.2500:44:15.25+00:19:525:5410.2
47KARWICKI Łukasz 25DĄBROWA CHEŁMIŃSKAM3046M 125Yes00:45:50.4000:45:50.40+00:21:286:069.8
48POZNAŃ Mateusz 56FULL SERVICE LADIESGZINM2017M 127Tak00:47:10.8000:47:10.80+00:22:486:179.5
49CORREA Andrew 16OSTROMECKOM3048M 129Yes00:49:00.8500:49:00.85+00:24:386:329.2
50BRODACKI Igor 261DĄBROWA CHEŁMIŃSKAM1611M 131Tak00:51:33.4000:51:33.40+00:27:116:528.7
51KUCHARCZYK Hubert 157OSTROMECKOM4030M 133Tak00:54:19.6500:54:19.65+00:29:577:148.3
Znaleziono 51 wynik(ów)